createdAt,value
2022-12-13T00:00:08.603Z,-3.66
2022-12-13T00:05:13.200Z,-3.77
2022-12-13T00:10:16.670Z,-3.87
2022-12-13T00:15:20.105Z,-3.92
2022-12-13T00:20:23.145Z,-3.97
2022-12-13T00:25:26.139Z,-4.06
2022-12-13T00:30:31.755Z,-4.08
2022-12-13T00:35:42.026Z,-4.08
2022-12-13T00:40:44.953Z,-4.13
2022-12-13T00:45:48.202Z,-4.18
2022-12-13T00:50:51.085Z,-4.25
2022-12-13T00:55:54.370Z,-4.26
2022-12-13T01:01:07.710Z,-4.31
2022-12-13T01:06:22.058Z,-4.32
2022-12-13T01:11:25.574Z,-4.29
2022-12-13T01:16:28.801Z,-4.34
2022-12-13T01:21:32.036Z,-4.33
2022-12-13T01:26:35.150Z,-4.37
2022-12-13T01:31:41.832Z,-4.37
2022-12-13T01:36:46.827Z,-4.42
2022-12-13T01:41:59.646Z,-4.41
2022-12-13T01:47:03.190Z,-4.40
2022-12-13T01:52:08.881Z,-4.42
2022-12-13T01:57:20.951Z,-4.40
2022-12-13T02:02:24.210Z,-4.33
2022-12-13T02:07:33.009Z,-4.23
2022-12-13T02:12:38.248Z,-4.17
2022-12-13T02:18:10.428Z,-4.07
2022-12-13T02:23:43.468Z,-4.03
2022-12-13T02:29:10.842Z,-4.00
2022-12-13T02:34:24.459Z,-4.00
2022-12-13T02:39:42.643Z,-4.03
2022-12-13T02:45:05.956Z,-4.10
2022-12-13T02:50:11.775Z,-4.15
2022-12-13T02:55:16.964Z,-4.21
2022-12-13T03:00:37.287Z,-4.20
2022-12-13T03:06:13.991Z,-4.15
2022-12-13T03:11:20.158Z,-4.13
2022-12-13T03:16:38.045Z,-4.10
2022-12-13T03:21:48.784Z,-4.11
2022-12-13T03:26:52.396Z,-4.16
2022-12-13T03:31:55.400Z,-4.29
2022-12-13T03:36:58.416Z,-4.36
2022-12-13T03:42:04.149Z,-4.50
2022-12-13T03:47:06.997Z,-4.58
2022-12-13T03:52:09.873Z,-4.68
2022-12-13T03:57:15.835Z,-4.75
2022-12-13T04:02:31.024Z,-4.81
2022-12-13T04:07:34.841Z,-4.89
2022-12-13T04:12:56.024Z,-4.95
2022-12-13T04:18:03.680Z,-5.00
2022-12-13T04:23:10.086Z,-5.11
2022-12-13T04:28:22.563Z,-5.18
2022-12-13T04:33:26.147Z,-5.23
2022-12-13T04:38:29.190Z,-5.27
2022-12-13T04:43:32.368Z,-5.34
2022-12-13T04:48:35.557Z,-5.39
2022-12-13T04:53:38.510Z,-5.44
2022-12-13T04:58:41.437Z,-5.53
2022-12-13T05:03:44.414Z,-5.63
2022-12-13T05:08:47.411Z,-5.71
2022-12-13T05:13:50.711Z,-5.76
2022-12-13T05:18:53.607Z,-5.84
2022-12-13T05:23:56.509Z,-5.89
2022-12-13T05:28:59.982Z,-5.95
2022-12-13T05:34:02.884Z,-5.97
2022-12-13T05:39:05.744Z,-6.02
2022-12-13T05:44:28.867Z,-6.10
2022-12-13T05:49:32.351Z,-6.19
2022-12-13T05:54:35.423Z,-6.30
2022-12-13T05:59:38.381Z,-6.35
2022-12-13T06:04:41.218Z,-6.37
2022-12-13T06:09:44.175Z,-6.42
2022-12-13T06:14:47.232Z,-6.46
2022-12-13T06:19:51.397Z,-6.50
2022-12-13T06:24:55.150Z,-6.53
2022-12-13T06:30:02.413Z,-6.63
2022-12-13T06:35:08.972Z,-6.65
2022-12-13T06:40:31.518Z,-6.61
2022-12-13T06:45:38.241Z,-6.48
2022-12-13T06:50:41.243Z,-6.23
2022-12-13T06:55:44.230Z,-5.94
2022-12-13T07:00:49.049Z,-5.76
2022-12-13T07:05:56.748Z,-5.64
2022-12-13T07:11:02.029Z,-5.65
2022-12-13T07:16:05.503Z,-5.62
2022-12-13T07:21:21.993Z,-5.62
2022-12-13T07:26:25.952Z,-5.48
2022-12-13T07:31:29.480Z,-5.09
2022-12-13T07:36:32.537Z,-4.42
2022-12-13T07:41:35.404Z,-3.79
2022-12-13T07:46:38.237Z,-3.34
2022-12-13T07:51:41.116Z,-2.88
2022-12-13T07:56:44.262Z,-2.40
2022-12-13T08:01:48.921Z,-1.95
2022-12-13T08:06:51.915Z,-1.51
2022-12-13T08:11:54.760Z,-0.99
2022-12-13T08:16:58.041Z,-0.55
2022-12-13T08:22:02.035Z,-0.21
2022-12-13T08:27:05.740Z,0.13
2022-12-13T08:32:11.917Z,0.45
2022-12-13T08:37:14.878Z,0.70
2022-12-13T08:42:20.351Z,0.97
2022-12-13T08:47:27.051Z,0.94
2022-12-13T08:52:31.930Z,0.38
2022-12-13T08:57:43.362Z,-0.29
2022-12-13T09:02:46.809Z,-0.80
2022-12-13T09:07:49.780Z,-0.99
2022-12-13T09:13:01.098Z,-0.70
2022-12-13T09:18:05.675Z,-0.59
2022-12-13T09:23:14.264Z,-0.70
2022-12-13T09:28:29.262Z,-0.88
2022-12-13T09:33:32.592Z,-1.09
2022-12-13T09:38:45.294Z,-1.22
2022-12-13T09:44:05.187Z,-1.32
2022-12-13T09:49:35.879Z,-1.44
2022-12-13T09:54:49.118Z,-1.44
2022-12-13T09:59:55.901Z,-1.46
2022-12-13T10:05:21.963Z,-1.48
2022-12-13T10:10:27.899Z,-1.49
2022-12-13T10:15:33.224Z,-1.44
2022-12-13T10:20:36.987Z,-1.42
2022-12-13T10:26:03.235Z,-1.40
2022-12-13T10:31:07.813Z,-1.38
2022-12-13T10:36:35.743Z,-1.35
2022-12-13T10:41:39.990Z,-1.25
2022-12-13T10:47:05.825Z,-1.12
2022-12-13T10:52:32.359Z,-0.72
2022-12-13T10:57:35.347Z,-0.61
2022-12-13T11:02:41.748Z,-0.65
2022-12-13T11:07:44.760Z,-0.61
2022-12-13T11:12:49.510Z,-0.71
2022-12-13T11:17:58.441Z,-0.77
2022-12-13T11:23:13.185Z,-0.74
2022-12-13T11:28:49.118Z,-0.73
2022-12-13T11:34:13.528Z,-0.75
2022-12-13T11:39:31.126Z,-0.76
2022-12-13T11:45:23.406Z,-0.76
2022-12-13T11:50:38.328Z,-0.75
2022-12-13T11:55:50.098Z,-0.77
2022-12-13T12:01:10.625Z,-0.78
2022-12-13T12:06:27.355Z,-0.76
2022-12-13T12:11:41.823Z,-0.76
2022-12-13T12:16:51.820Z,-0.76
2022-12-13T12:22:18.755Z,-0.76
2022-12-13T12:27:54.441Z,-0.81
2022-12-13T12:33:04.460Z,-0.81
2022-12-13T12:38:58.730Z,-0.78
2022-12-13T12:44:15.312Z,-0.82
2022-12-13T12:49:32.785Z,-0.83
2022-12-13T12:55:13.349Z,-0.85
2022-12-13T13:00:23.348Z,-0.85
2022-12-13T13:05:49.408Z,-0.86
2022-12-13T13:10:53.425Z,-0.90
2022-12-13T13:16:06.064Z,-0.94
2022-12-13T13:21:24.226Z,-0.94
2022-12-13T13:26:35.975Z,-0.95
2022-12-13T13:32:05.262Z,-0.99
2022-12-13T13:37:22.831Z,-1.04
2022-12-13T13:42:31.012Z,-1.08
2022-12-13T13:47:40.267Z,-1.15
2022-12-13T13:52:58.011Z,-1.22
2022-12-13T13:58:57.795Z,-1.30
2022-12-13T14:04:22.785Z,-1.41
2022-12-13T14:10:20.281Z,-1.53
2022-12-13T14:15:59.269Z,-1.62
2022-12-13T14:21:26.907Z,-1.75
2022-12-13T14:27:00.139Z,-1.92
2022-12-13T14:32:31.371Z,-2.03
2022-12-13T14:37:37.807Z,-2.17
2022-12-13T14:42:42.406Z,-2.36
2022-12-13T14:47:54.445Z,-2.46
2022-12-13T14:52:58.021Z,-2.60
2022-12-13T14:58:16.558Z,-2.72
2022-12-13T15:03:26.658Z,-2.91
2022-12-13T15:08:38.118Z,-3.11
2022-12-13T15:13:52.679Z,-3.35
2022-12-13T15:19:30.120Z,-3.51
2022-12-13T15:24:47.056Z,-3.69
2022-12-13T15:29:51.410Z,-3.87
2022-12-13T15:34:55.675Z,-3.95
2022-12-13T15:40:09.053Z,-4.07
2022-12-13T15:45:28.262Z,-4.16
2022-12-13T15:50:45.197Z,-4.27
2022-12-13T15:55:51.743Z,-4.39
2022-12-13T16:00:54.945Z,-4.50
2022-12-13T16:05:58.180Z,-4.62
2022-12-13T16:11:01.490Z,-4.66
2022-12-13T16:16:28.588Z,-4.64
2022-12-13T16:21:31.575Z,-4.70
2022-12-13T16:26:34.957Z,-4.83
2022-12-13T16:31:38.008Z,-4.96
2022-12-13T16:36:41.126Z,-5.04
2022-12-13T16:41:47.907Z,-5.14
2022-12-13T16:47:15.287Z,-5.29
2022-12-13T16:52:13.814Z,-5.37
2022-12-13T16:57:16.760Z,-5.42
2022-12-13T17:02:20.374Z,-5.50
2022-12-13T17:07:23.761Z,-5.58
2022-12-13T17:12:26.697Z,-5.62
2022-12-13T17:17:29.466Z,-5.64
2022-12-13T17:22:32.774Z,-5.67
2022-12-13T17:27:36.296Z,-5.74
2022-12-13T17:32:39.212Z,-5.77
2022-12-13T17:37:43.496Z,-5.88
2022-12-13T17:42:50.957Z,-5.88
2022-12-13T17:47:53.919Z,-5.98
2022-12-13T17:52:56.843Z,-5.96
2022-12-13T17:58:04.281Z,-5.99
2022-12-13T18:03:07.560Z,-6.01
2022-12-13T18:08:10.615Z,-6.07
2022-12-13T18:13:13.460Z,-6.09
2022-12-13T18:18:16.861Z,-6.16
2022-12-13T18:23:20.037Z,-6.28
2022-12-13T18:28:23.051Z,-6.39
2022-12-13T18:33:26.349Z,-6.45
2022-12-13T18:38:36.232Z,-6.54
2022-12-13T18:43:39.903Z,-6.57
2022-12-13T18:48:43.273Z,-6.61
2022-12-13T18:53:46.307Z,-6.66
2022-12-13T18:58:50.484Z,-6.69
2022-12-13T19:03:54.991Z,-6.72
2022-12-13T19:08:59.213Z,-6.80
2022-12-13T19:14:02.268Z,-6.86
2022-12-13T19:19:07.073Z,-6.95
2022-12-13T19:24:13.857Z,-7.02
2022-12-13T19:29:16.969Z,-7.07
2022-12-13T19:34:20.177Z,-7.13
2022-12-13T19:39:24.072Z,-7.20
2022-12-13T19:44:27.088Z,-7.26
2022-12-13T19:49:30.242Z,-7.32
2022-12-13T19:54:32.935Z,-7.38
2022-12-13T19:59:35.893Z,-7.43
2022-12-13T20:04:38.844Z,-7.48
2022-12-13T20:09:42.002Z,-7.53
2022-12-13T20:14:44.891Z,-7.60
2022-12-13T20:19:47.859Z,-7.62
2022-12-13T20:24:51.071Z,-7.63
2022-12-13T20:29:55.711Z,-7.67
2022-12-13T20:34:58.701Z,-7.70
2022-12-13T20:40:01.655Z,-7.71
2022-12-13T20:45:05.627Z,-7.74
2022-12-13T20:50:08.953Z,-7.72
2022-12-13T20:55:13.815Z,-7.76
2022-12-13T21:00:17.831Z,-7.75
2022-12-13T21:05:21.819Z,-7.78
2022-12-13T21:10:24.750Z,-7.82
2022-12-13T21:15:27.824Z,-7.86
2022-12-13T21:20:31.235Z,-7.92
2022-12-13T21:25:34.100Z,-7.97
2022-12-13T21:30:37.186Z,-8.00
2022-12-13T21:35:40.310Z,-8.04
2022-12-13T21:40:49.623Z,-8.09
2022-12-13T21:45:52.757Z,-8.13
2022-12-13T21:50:55.847Z,-8.17
2022-12-13T21:56:17.663Z,-8.21
2022-12-13T22:01:20.700Z,-8.22
2022-12-13T22:06:23.534Z,-8.29
2022-12-13T22:11:26.412Z,-8.29
2022-12-13T22:16:29.751Z,-8.31
2022-12-13T22:21:32.769Z,-8.33
2022-12-13T22:26:37.500Z,-8.35
2022-12-13T22:31:41.262Z,-8.38
2022-12-13T22:36:44.736Z,-8.35
2022-12-13T22:41:49.756Z,-8.30
2022-12-13T22:46:52.661Z,-8.26
2022-12-13T22:51:55.614Z,-8.26
2022-12-13T22:56:58.392Z,-8.23
2022-12-13T23:02:03.004Z,-8.23
2022-12-13T23:07:06.840Z,-8.23
2022-12-13T23:12:30.055Z,-8.25
2022-12-13T23:17:33.004Z,-8.32
2022-12-13T23:22:35.991Z,-8.36
2022-12-13T23:27:38.921Z,-8.43
2022-12-13T23:32:41.751Z,-8.42
2022-12-13T23:37:44.459Z,-8.38
2022-12-13T23:42:51.704Z,-8.32
2022-12-13T23:47:54.548Z,-8.21
2022-12-13T23:52:57.237Z,-8.11
2022-12-13T23:58:00.081Z,-8.01
